Time;durP1;ratioP1;P1;durP2;ratioP2;P2;SDS_P1;SDS_P2;PMS_P1;PMS_P2;Temp;Humidity;BMP_temperature;BMP_pressure;BME280_temperature;BME280_humidity;BME280_pressure;Samples;Min_cycle;Max_cycle;Signal;HPM_P1;HPM_P2
2024/03/05 00:00:11;;;;;;;25.75;14.60;;;;;;;;;;5036844;28;20101;-77
2024/03/05 00:02:38;;;;;;;27.58;14.38;;;;;;;;;;5036836;28;20084;-76
2024/03/05 00:05:06;;;;;;;23.67;13.75;;;;;;;;;;5020793;28;20022;-76
2024/03/05 00:07:32;;;;;;;22.17;12.93;;;;;;;;;;5036709;28;20028;-76
2024/03/05 00:09:58;;;;;;;20.58;11.07;;;;;;;;;;5036270;28;20446;-76
2024/03/05 00:12:24;;;;;;;17.83;9.88;;;;;;;;;;5036993;28;20029;-77
2024/03/05 00:14:50;;;;;;;16.00;9.50;;;;;;;;;;5036371;28;20549;-78
2024/03/05 00:17:17;;;;;;;20.65;11.25;;;;;;;;;;5036548;28;20041;-77
2024/03/05 00:19:43;;;;;;;24.00;14.27;;;;;;;;;;5019135;28;20026;-76
2024/03/05 00:22:09;;;;;;;29.20;15.48;;;;;;;;;;5029213;28;20036;-76
2024/03/05 00:24:35;;;;;;;31.98;16.25;;;;;;;;;;5036475;28;20143;-76
2024/03/05 00:27:01;;;;;;;27.60;15.23;;;;;;;;;;5036628;28;20063;-76
2024/03/05 00:29:27;;;;;;;24.77;14.05;;;;;;;;;;5035076;28;20025;-76
2024/03/05 00:31:53;;;;;;;23.83;13.20;;;;;;;;;;5036518;28;20502;-76
2024/03/05 00:34:19;;;;;;;20.08;12.25;;;;;;;;;;5036267;28;20436;-76
2024/03/05 00:36:45;;;;;;;21.08;12.00;;;;;;;;;;5027883;28;20097;-75
2024/03/05 00:39:12;;;;;;;22.33;12.00;;;;;;;;;;5036341;28;20029;-76
2024/03/05 00:41:38;;;;;;;34.55;19.02;;;;;;;;;;5035932;28;20026;-78
2024/03/05 00:44:04;;;;;;;40.47;20.20;;;;;;;;;;5014036;28;20032;-78
2024/03/05 00:46:31;;;;;;;40.58;20.67;;;;;;;;;;5031243;28;20089;-76
2024/03/05 00:48:58;;;;;;;39.08;20.25;;;;;;;;;;5036344;28;20021;-77
2024/03/05 00:51:24;;;;;;;37.28;19.48;;;;;;;;;;5036853;28;20076;-75
2024/03/05 00:53:50;;;;;;;42.30;20.55;;;;;;;;;;5037695;28;20029;-76
2024/03/05 00:56:16;;;;;;;32.88;18.02;;;;;;;;;;5035657;28;20026;-77
2024/03/05 00:58:42;;;;;;;30.20;15.65;;;;;;;;;;5034393;28;20037;-77
2024/03/05 01:01:09;;;;;;;26.02;14.48;;;;;;;;;;5036947;28;20033;-77
2024/03/05 01:03:35;;;;;;;32.72;16.90;;;;;;;;;;5020150;28;20121;-76
2024/03/05 01:06:03;;;;;;;31.05;15.50;;;;;;;;;;5041738;28;20021;-76
2024/03/05 01:08:30;;;;;;;25.15;13.60;;;;;;;;;;5041112;28;20024;-78
2024/03/05 01:10:57;;;;;;;25.05;14.48;;;;;;;;;;5036060;28;20077;-77
2024/03/05 01:13:23;;;;;;;23.00;13.55;;;;;;;;;;5035460;28;20026;-78
2024/03/05 01:15:49;;;;;;;22.77;12.80;;;;;;;;;;5035417;28;20026;-77
2024/03/05 01:18:15;;;;;;;18.02;11.40;;;;;;;;;;5035656;28;20480;-76
2024/03/05 01:20:42;;;;;;;20.45;11.10;;;;;;;;;;5032342;28;20108;-77
2024/03/05 01:23:11;;;;;;;21.85;11.55;;;;;;;;;;5034505;28;20018;-77
2024/03/05 01:25:38;;;;;;;20.60;11.95;;;;;;;;;;5034415;28;20045;-77
2024/03/05 01:28:04;;;;;;;21.60;12.27;;;;;;;;;;5018302;28;20033;-77
2024/03/05 01:30:30;;;;;;;22.73;12.30;;;;;;;;;;5034030;28;20388;-77
2024/03/05 01:32:57;;;;;;;28.90;14.60;;;;;;;;;;5034046;28;20029;-77
2024/03/05 01:35:23;;;;;;;26.25;14.15;;;;;;;;;;5030526;28;20033;-77
2024/03/05 01:37:49;;;;;;;24.10;13.60;;;;;;;;;;5045514;28;20017;-76
2024/03/05 01:40:16;;;;;;;24.27;13.43;;;;;;;;;;5036274;28;20091;-76
2024/03/05 01:42:42;;;;;;;20.27;11.93;;;;;;;;;;5024357;28;20034;-77
2024/03/05 01:45:09;;;;;;;26.13;13.68;;;;;;;;;;5034741;28;20060;-76
2024/03/05 01:47:35;;;;;;;24.90;14.13;;;;;;;;;;5026505;28;20018;-76
2024/03/05 01:50:03;;;;;;;25.77;14.30;;;;;;;;;;5032972;28;20029;-76
2024/03/05 01:52:30;;;;;;;23.30;13.25;;;;;;;;;;5017620;28;20049;-77
2024/03/05 01:54:58;;;;;;;27.52;15.20;;;;;;;;;;5033849;28;20533;-77
2024/03/05 01:57:25;;;;;;;34.25;17.92;;;;;;;;;;5033975;28;20034;-77
2024/03/05 01:59:51;;;;;;;33.72;18.13;;;;;;;;;;5033486;28;20033;-77
2024/03/05 02:02:17;;;;;;;42.17;21.17;;;;;;;;;;5033275;28;20099;-77
2024/03/05 02:04:45;;;;;;;40.05;20.45;;;;;;;;;;5023238;28;20022;-76
2024/03/05 02:07:12;;;;;;;34.00;18.13;;;;;;;;;;5021125;28;20336;-76
2024/03/05 02:09:38;;;;;;;34.25;17.65;;;;;;;;;;5033801;28;20026;-76
2024/03/05 02:12:05;;;;;;;29.52;15.40;;;;;;;;;;5029107;28;20036;-77
2024/03/05 02:14:31;;;;;;;28.35;15.48;;;;;;;;;;5039682;28;20032;-76
2024/03/05 02:16:58;;;;;;;32.15;16.15;;;;;;;;;;5034824;28;20120;-77
2024/03/05 02:19:24;;;;;;;26.40;14.75;;;;;;;;;;5025610;28;20048;-76
2024/03/05 02:21:57;;;;;;;30.65;16.33;;;;;;;;;;5033458;28;20060;-76
2024/03/05 02:24:23;;;;;;;35.67;17.92;;;;;;;;;;5038163;28;20021;-76
2024/03/05 02:26:49;;;;;;;41.70;21.15;;;;;;;;;;5042425;28;20017;-75
2024/03/05 02:29:16;;;;;;;40.75;20.88;;;;;;;;;;5037666;28;20096;-76
2024/03/05 02:31:42;;;;;;;35.33;20.75;;;;;;;;;;5034328;28;20014;-76
2024/03/05 02:34:08;;;;;;;40.03;21.77;;;;;;;;;;5033666;28;20116;-76
2024/03/05 02:36:34;;;;;;;38.95;21.17;;;;;;;;;;5033510;28;20033;-77
2024/03/05 02:39:00;;;;;;;46.10;22.73;;;;;;;;;;5033777;28;20029;-75
2024/03/05 02:41:27;;;;;;;49.42;24.20;;;;;;;;;;5034607;28;20037;-76
2024/03/05 02:43:53;;;;;;;44.72;22.52;;;;;;;;;;5035938;28;20026;-77
2024/03/05 02:46:19;;;;;;;40.30;20.38;;;;;;;;;;5050388;28;20033;-79
2024/03/05 02:48:45;;;;;;;47.20;23.60;;;;;;;;;;5033958;28;20022;-75
2024/03/05 02:51:11;;;;;;;39.58;21.13;;;;;;;;;;5033886;28;20021;-76
2024/03/05 02:53:37;;;;;;;39.50;20.15;;;;;;;;;;5034128;28;20026;-76
2024/03/05 02:56:04;;;;;;;34.30;17.17;;;;;;;;;;5033470;28;20025;-78
2024/03/05 02:58:31;;;;;;;32.10;16.83;;;;;;;;;;5038431;28;20049;-77
2024/03/05 03:00:57;;;;;;;28.92;15.85;;;;;;;;;;5035910;28;20036;-76
2024/03/05 03:03:23;;;;;;;28.17;14.60;;;;;;;;;;5039787;28;20060;-77
2024/03/05 03:05:49;;;;;;;26.15;13.70;;;;;;;;;;5054320;28;20481;-77
2024/03/05 03:08:17;;;;;;;24.58;14.05;;;;;;;;;;5048460;28;20047;-76
2024/03/05 03:10:43;;;;;;;23.00;12.52;;;;;;;;;;5024098;28;20481;-76
2024/03/05 03:13:09;;;;;;;31.35;17.10;;;;;;;;;;5022106;28;20057;-77
2024/03/05 03:15:35;;;;;;;51.20;24.35;;;;;;;;;;5012473;28;20503;-77
2024/03/05 03:18:01;;;;;;;51.25;25.77;;;;;;;;;;5016004;28;20034;-78
2024/03/05 03:20:27;;;;;;;47.33;23.90;;;;;;;;;;5032680;28;20527;-77
2024/03/05 03:22:53;;;;;;;46.53;21.48;;;;;;;;;;5032593;28;20060;-77
2024/03/05 03:25:19;;;;;;;48.30;26.00;;;;;;;;;;5032862;28;20097;-77
2024/03/05 03:27:46;;;;;;;53.38;26.33;;;;;;;;;;5032944;28;20096;-76
2024/03/05 03:30:17;;;;;;;50.47;24.00;;;;;;;;;;5032943;28;20022;-76
2024/03/05 03:32:43;;;;;;;47.13;24.55;;;;;;;;;;5032958;28;20068;-76
2024/03/05 03:35:10;;;;;;;46.35;25.65;;;;;;;;;;5036585;28;20032;-77
2024/03/05 03:37:37;;;;;;;46.78;25.02;;;;;;;;;;5041220;28;20085;-77
2024/03/05 03:40:07;;;;;;;42.92;22.42;;;;;;;;;;5044210;28;20029;-77
2024/03/05 03:42:33;;;;;;;38.45;19.92;;;;;;;;;;5034548;28;20387;-77
2024/03/05 03:44:59;;;;;;;36.47;18.92;;;;;;;;;;5032113;28;20029;-77
2024/03/05 03:47:25;;;;;;;33.50;18.58;;;;;;;;;;5048489;28;20053;-77
2024/03/05 03:49:52;;;;;;;27.52;15.25;;;;;;;;;;5032135;28;20026;-76
2024/03/05 03:52:18;;;;;;;33.03;17.90;;;;;;;;;;5033144;28;20104;-76
2024/03/05 03:54:44;;;;;;;34.03;15.80;;;;;;;;;;5032739;28;20522;-76
2024/03/05 03:57:11;;;;;;;28.77;15.10;;;;;;;;;;5032569;28;20034;-77
2024/03/05 03:59:37;;;;;;;26.02;13.85;;;;;;;;;;5032613;28;20025;-77
2024/03/05 04:02:04;;;;;;;19.65;11.50;;;;;;;;;;5032724;28;20078;-76
2024/03/05 04:04:31;;;;;;;19.60;11.02;;;;;;;;;;5026858;28;20038;-75
2024/03/05 04:06:57;;;;;;;16.92;9.88;;;;;;;;;;5020148;28;20026;-74
2024/03/05 04:09:23;;;;;;;18.63;10.52;;;;;;;;;;5038111;28;20030;-76
2024/03/05 04:11:49;;;;;;;17.83;10.75;;;;;;;;;;5029642;28;20179;-77
2024/03/05 04:14:15;;;;;;;16.73;9.55;;;;;;;;;;5026526;28;20030;-77
2024/03/05 04:16:42;;;;;;;16.38;9.27;;;;;;;;;;5029322;28;20036;-77
2024/03/05 04:19:08;;;;;;;15.52;9.98;;;;;;;;;;5032277;28;20470;-77
2024/03/05 04:21:44;;;;;;;15.20;9.20;;;;;;;;;;5032602;28;20542;-78
2024/03/05 04:24:13;;;;;;;15.65;9.57;;;;;;;;;;5031914;28;20025;-76
2024/03/05 04:26:42;;;;;;;12.48;8.55;;;;;;;;;;5032834;28;20026;-76
2024/03/05 04:29:15;;;;;;;14.02;8.38;;;;;;;;;;5031995;28;20087;-77
2024/03/05 04:31:42;;;;;;;14.40;8.18;;;;;;;;;;5032276;28;20025;-78
2024/03/05 04:34:09;;;;;;;17.73;9.85;;;;;;;;;;5035679;28;20029;-78
2024/03/05 04:36:38;;;;;;;18.85;11.05;;;;;;;;;;5035470;28;20029;-77
2024/03/05 04:39:06;;;;;;;24.38;13.13;;;;;;;;;;5035140;28;20033;-77
2024/03/05 04:41:32;;;;;;;25.35;13.52;;;;;;;;;;5035806;28;20029;-76
2024/03/05 04:43:58;;;;;;;30.30;15.18;;;;;;;;;;5035018;28;20056;-76
2024/03/05 04:46:24;;;;;;;28.83;15.32;;;;;;;;;;5036416;28;20115;-75
2024/03/05 04:48:51;;;;;;;24.88;13.85;;;;;;;;;;5026001;28;20369;-76
2024/03/05 04:51:18;;;;;;;28.05;14.25;;;;;;;;;;5035969;28;20025;-75
2024/03/05 04:53:44;;;;;;;26.73;14.57;;;;;;;;;;5035253;28;20018;-77
2024/03/05 04:56:12;;;;;;;23.83;11.98;;;;;;;;;;5042190;28;20040;-76
2024/03/05 04:58:39;;;;;;;20.98;12.02;;;;;;;;;;5034921;28;20022;-77
2024/03/05 05:01:05;;;;;;;19.30;10.77;;;;;;;;;;5035857;28;20033;-77
2024/03/05 05:03:31;;;;;;;22.48;12.45;;;;;;;;;;5035187;28;20060;-75
2024/03/05 05:05:57;;;;;;;21.58;12.30;;;;;;;;;;5035540;28;20029;-75
2024/03/05 05:08:23;;;;;;;26.90;13.93;;;;;;;;;;5035789;28;20049;-74
2024/03/05 05:10:49;;;;;;;27.73;15.20;;;;;;;;;;5035332;28;20066;-74
2024/03/05 05:13:15;;;;;;;31.55;14.80;;;;;;;;;;5036642;28;20026;-74
2024/03/05 05:15:41;;;;;;;27.65;14.40;;;;;;;;;;5049835;28;20053;-75
2024/03/05 05:18:07;;;;;;;25.95;13.40;;;;;;;;;;5056156;28;20042;-74
2024/03/05 05:20:33;;;;;;;23.33;14.18;;;;;;;;;;5055981;28;20052;-74
2024/03/05 05:22:59;;;;;;;25.30;13.57;;;;;;;;;;5054224;28;20029;-74
2024/03/05 05:25:26;;;;;;;31.83;15.85;;;;;;;;;;5050685;28;20076;-74
2024/03/05 05:27:52;;;;;;;30.20;15.80;;;;;;;;;;5049072;28;20032;-76
2024/03/05 05:30:20;;;;;;;28.20;15.15;;;;;;;;;;5043595;28;20079;-75
2024/03/05 05:32:47;;;;;;;23.85;13.93;;;;;;;;;;5034146;28;20036;-76
2024/03/05 05:35:14;;;;;;;25.10;14.38;;;;;;;;;;5034384;28;20396;-74
2024/03/05 05:37:40;;;;;;;21.65;12.30;;;;;;;;;;5034132;28;20033;-76
2024/03/05 05:40:16;;;;;;;23.52;13.15;;;;;;;;;;5033580;28;20032;-75
2024/03/05 05:42:42;;;;;;;33.10;16.50;;;;;;;;;;5034535;28;20048;-75
2024/03/05 05:45:09;;;;;;;30.58;16.08;;;;;;;;;;5047460;28;20033;-78
2024/03/05 05:47:54;;;;;;;33.95;16.88;;;;;;;;;;5031580;28;20048;-75
2024/03/05 05:50:28;;;;;;;51.85;24.13;;;;;;;;;;5018727;28;20021;-74
2024/03/05 05:52:55;;;;;;;45.17;22.00;;;;;;;;;;5033753;28;20095;-75
2024/03/05 05:55:22;;;;;;;43.28;22.90;;;;;;;;;;5017118;28;20084;-75
2024/03/05 05:57:49;;;;;;;47.60;23.95;;;;;;;;;;5034052;28;20083;-74
2024/03/05 06:00:31;;;;;;;46.28;23.58;;;;;;;;;;5048427;28;20104;-76
2024/03/05 06:02:58;;;;;;;50.63;24.08;;;;;;;;;;5048684;28;20036;-75
2024/03/05 06:05:31;;;;;;;48.17;24.35;;;;;;;;;;5035009;28;20036;-75
2024/03/05 06:07:59;;;;;;;45.72;22.48;;;;;;;;;;5049385;28;20455;-76
2024/03/05 06:10:27;;;;;;;42.72;21.33;;;;;;;;;;5050876;28;20026;-77
2024/03/05 06:12:53;;;;;;;39.72;21.58;;;;;;;;;;5022519;28;20028;-76
2024/03/05 06:15:19;;;;;;;41.55;22.33;;;;;;;;;;5038127;28;20048;-75
2024/03/05 06:17:45;;;;;;;42.72;21.63;;;;;;;;;;5034029;28;20056;-75
2024/03/05 06:20:12;;;;;;;37.17;19.98;;;;;;;;;;5032958;28;20041;-75
2024/03/05 06:22:38;;;;;;;32.42;17.67;;;;;;;;;;5037478;28;20034;-76
2024/03/05 06:25:08;;;;;;;33.28;17.20;;;;;;;;;;5074826;23;20056;-77
2024/03/05 06:27:34;;;;;;;37.10;20.63;;;;;;;;;;5085778;28;20024;-77
2024/03/05 06:30:01;;;;;;;34.63;18.25;;;;;;;;;;5081910;28;20017;-78
2024/03/05 06:32:27;;;;;;;32.28;17.25;;;;;;;;;;5097092;28;20032;-77
2024/03/05 06:34:54;;;;;;;28.65;15.75;;;;;;;;;;5078280;28;20123;-77
2024/03/05 06:37:20;;;;;;;25.83;15.50;;;;;;;;;;5088111;28;20063;-77
2024/03/05 06:39:46;;;;;;;28.42;15.00;;;;;;;;;;5069606;28;20042;-77
2024/03/05 06:42:13;;;;;;;26.17;14.38;;;;;;;;;;5079260;28;20071;-77
2024/03/05 06:44:40;;;;;;;25.98;13.85;;;;;;;;;;5066658;28;20063;-77
2024/03/05 06:47:09;;;;;;;26.63;15.70;;;;;;;;;;5076929;28;20459;-77
2024/03/05 06:49:40;;;;;;;33.22;19.58;;;;;;;;;;5061879;28;20041;-77
2024/03/05 06:57:36;;;;;;;37.90;19.90;;;;;;;;;;5075266;28;20035;-77
2024/03/05 07:00:15;;;;;;;34.97;19.20;;;;;;;;;;5075506;28;20020;-77
2024/03/05 07:02:41;;;;;;;32.10;18.33;;;;;;;;;;5069444;28;20043;-77
2024/03/05 07:05:08;;;;;;;32.53;17.55;;;;;;;;;;5068859;28;20031;-77
2024/03/05 07:07:34;;;;;;;30.67;16.98;;;;;;;;;;5077708;28;20028;-78
2024/03/05 07:10:13;;;;;;;26.60;15.20;;;;;;;;;;5077886;28;20024;-78
2024/03/05 07:12:40;;;;;;;25.35;14.82;;;;;;;;;;5085945;28;20024;-78
2024/03/05 07:15:09;;;;;;;24.52;13.55;;;;;;;;;;5088210;28;20485;-76
2024/03/05 07:17:36;;;;;;;23.33;13.52;;;;;;;;;;5074841;28;20032;-77
2024/03/05 07:20:03;;;;;;;31.77;16.83;;;;;;;;;;5078763;28;20063;-77
2024/03/05 07:22:29;;;;;;;27.67;15.65;;;;;;;;;;5065962;28;20436;-78
2024/03/05 07:24:55;;;;;;;23.50;14.32;;;;;;;;;;5075731;28;20410;-77
2024/03/05 07:27:21;;;;;;;25.52;13.55;;;;;;;;;;5067467;28;20025;-77
2024/03/05 07:29:47;;;;;;;22.30;13.30;;;;;;;;;;5076990;28;20017;-78
2024/03/05 07:32:15;;;;;;;24.85;14.13;;;;;;;;;;5076165;28;20031;-77
2024/03/05 07:34:41;;;;;;;24.80;13.68;;;;;;;;;;5075947;28;20024;-77
2024/03/05 07:37:08;;;;;;;26.77;13.88;;;;;;;;;;5062370;28;20086;-78
2024/03/05 07:39:34;;;;;;;21.48;12.88;;;;;;;;;;5087738;28;20048;-78
2024/03/05 07:42:00;;;;;;;19.10;11.68;;;;;;;;;;5076285;28;20540;-77
2024/03/05 07:44:26;;;;;;;16.63;10.90;;;;;;;;;;5078178;28;20021;-77
2024/03/05 07:46:52;;;;;;;17.85;11.45;;;;;;;;;;5076668;28;20044;-77
2024/03/05 07:49:18;;;;;;;18.23;10.65;;;;;;;;;;5057730;28;20483;-77
2024/03/05 07:51:44;;;;;;;24.65;13.48;;;;;;;;;;5075313;28;20024;-77
2024/03/05 07:54:11;;;;;;;31.33;17.45;;;;;;;;;;5057943;28;20020;-77
2024/03/05 07:56:37;;;;;;;32.03;18.83;;;;;;;;;;5073928;28;20017;-77
2024/03/05 07:59:03;;;;;;;28.55;16.40;;;;;;;;;;5068760;28;20117;-78
2024/03/05 08:01:29;;;;;;;29.23;16.33;;;;;;;;;;5079584;28;20024;-78
2024/03/05 08:03:57;;;;;;;30.92;17.98;;;;;;;;;;5071592;28;20031;-78
2024/03/05 08:06:23;;;;;;;29.50;16.23;;;;;;;;;;5087121;28;20008;-77
2024/03/05 08:08:49;;;;;;;37.05;19.90;;;;;;;;;;5098372;28;20036;-77
2024/03/05 08:11:15;;;;;;;36.28;19.30;;;;;;;;;;5098687;28;20028;-77
2024/03/05 08:13:41;;;;;;;31.67;17.70;;;;;;;;;;5098165;28;20012;-77
2024/03/05 08:16:08;;;;;;;30.38;16.50;;;;;;;;;;5089655;28;20012;-78
2024/03/05 08:18:34;;;;;;;30.33;16.02;;;;;;;;;;5098951;28;20036;-77
2024/03/05 08:21:01;;;;;;;32.58;16.85;;;;;;;;;;5089824;28;20178;-78
2024/03/05 08:23:27;;;;;;;32.55;17.63;;;;;;;;;;5099170;28;20040;-77
2024/03/05 08:25:53;;;;;;;30.63;16.25;;;;;;;;;;5094019;28;20094;-77
2024/03/05 08:28:19;;;;;;;34.47;17.98;;;;;;;;;;5083308;28;20025;-77
2024/03/05 08:30:45;;;;;;;32.95;17.90;;;;;;;;;;5079920;28;20036;-77
2024/03/05 08:33:13;;;;;;;24.45;15.13;;;;;;;;;;5067020;28;20491;-77
2024/03/05 08:35:40;;;;;;;27.85;15.57;;;;;;;;;;5079758;28;20429;-77
2024/03/05 08:38:09;;;;;;;28.63;16.08;;;;;;;;;;5072724;28;20047;-78
2024/03/05 08:40:35;;;;;;;28.23;16.50;;;;;;;;;;5084512;28;20021;-77
2024/03/05 08:43:03;;;;;;;27.48;15.80;;;;;;;;;;5078340;28;20074;-80
2024/03/05 08:45:29;;;;;;;29.48;15.63;;;;;;;;;;5072056;28;20048;-78
2024/03/05 08:47:55;;;;;;;27.17;14.75;;;;;;;;;;5069915;28;20394;-77
2024/03/05 08:50:22;;;;;;;24.48;13.18;;;;;;;;;;5076859;28;20025;-77
2024/03/05 08:52:48;;;;;;;23.25;13.10;;;;;;;;;;5088514;28;20021;-78
2024/03/05 08:55:15;;;;;;;17.75;10.93;;;;;;;;;;5069552;28;20194;-77
2024/03/05 08:57:42;;;;;;;20.75;11.60;;;;;;;;;;5079539;28;20020;-78
2024/03/05 09:00:09;;;;;;;19.02;11.18;;;;;;;;;;5078788;28;20032;-77
2024/03/05 09:02:35;;;;;;;16.15;9.50;;;;;;;;;;5073488;28;20036;-77
2024/03/05 09:05:04;;;;;;;15.52;9.07;;;;;;;;;;5081142;28;20017;-78
2024/03/05 09:07:31;;;;;;;14.70;8.73;;;;;;;;;;5082184;28;20020;-77
2024/03/05 09:09:57;;;;;;;13.18;8.52;;;;;;;;;;5084772;28;20008;-78
2024/03/05 09:12:24;;;;;;;14.45;8.02;;;;;;;;;;5069370;28;20020;-78
2024/03/05 09:14:50;;;;;;;15.00;8.95;;;;;;;;;;5080050;28;20012;-77
2024/03/05 09:17:16;;;;;;;13.25;7.80;;;;;;;;;;5079930;28;20524;-77
2024/03/05 09:19:44;;;;;;;12.98;8.32;;;;;;;;;;5087217;28;20071;-77
2024/03/05 09:22:10;;;;;;;11.07;6.45;;;;;;;;;;5078878;28;20028;-78
2024/03/05 09:24:36;;;;;;;13.68;7.65;;;;;;;;;;5090878;28;20024;-79
2024/03/05 09:27:03;;;;;;;12.52;7.10;;;;;;;;;;5090495;28;20023;-78
2024/03/05 09:29:29;;;;;;;14.95;7.70;;;;;;;;;;5081414;28;20023;-77
2024/03/05 09:31:55;;;;;;;10.93;7.35;;;;;;;;;;5080386;28;20024;-78
2024/03/05 09:34:22;;;;;;;15.10;8.98;;;;;;;;;;5070388;28;20036;-78
2024/03/05 09:36:49;;;;;;;13.60;8.32;;;;;;;;;;5078605;28;20024;-77
2024/03/05 09:39:15;;;;;;;12.00;7.57;;;;;;;;;;5077261;28;20028;-78
2024/03/05 09:41:45;;;;;;;10.82;7.57;;;;;;;;;;5078292;28;20056;-77
2024/03/05 09:44:12;;;;;;;13.07;7.47;;;;;;;;;;5079710;28;20479;-77
2024/03/05 09:46:39;;;;;;;11.63;7.15;;;;;;;;;;5081211;28;20051;-77
2024/03/05 09:49:10;;;;;;;11.07;6.80;;;;;;;;;;5082536;28;20024;-77
2024/03/05 09:51:39;;;;;;;9.88;5.70;;;;;;;;;;5083013;28;20017;-77
2024/03/05 09:54:07;;;;;;;8.65;5.45;;;;;;;;;;5081682;28;20036;-77
2024/03/05 09:56:34;;;;;;;7.90;5.15;;;;;;;;;;5084924;28;20019;-77
2024/03/05 09:59:04;;;;;;;7.75;5.10;;;;;;;;;;5082170;28;20409;-78
2024/03/05 10:01:31;;;;;;;6.85;4.32;;;;;;;;;;5082430;28;20026;-78
2024/03/05 10:03:58;;;;;;;7.07;4.43;;;;;;;;;;5088073;28;20202;-77
2024/03/05 10:06:25;;;;;;;5.00;3.80;;;;;;;;;;5085345;28;20046;-78
2024/03/05 10:08:51;;;;;;;6.80;3.78;;;;;;;;;;5086361;28;20629;-78
2024/03/05 10:11:18;;;;;;;4.18;3.50;;;;;;;;;;5085339;28;20066;-78
2024/03/05 10:13:44;;;;;;;3.50;2.90;;;;;;;;;;5080888;28;20039;-77
2024/03/05 10:16:20;;;;;;;4.20;2.92;;;;;;;;;;5090081;28;20032;-77
2024/03/05 10:18:47;;;;;;;3.25;2.58;;;;;;;;;;5081167;28;20024;-79
2024/03/05 10:21:19;;;;;;;3.28;2.42;;;;;;;;;;5074474;28;20111;-78
2024/03/05 10:23:55;;;;;;;3.05;2.20;;;;;;;;;;5078498;28;20062;-77
2024/03/05 10:26:24;;;;;;;2.30;2.10;;;;;;;;;;5084906;28;20025;-79
2024/03/05 10:28:51;;;;;;;3.33;2.38;;;;;;;;;;5090671;28;20017;-78
2024/03/05 10:31:27;;;;;;;4.18;3.28;;;;;;;;;;5080612;28;20044;-77
2024/03/05 10:33:53;;;;;;;5.30;3.90;;;;;;;;;;5084863;28;20020;-77
2024/03/05 10:36:23;;;;;;;8.90;5.57;;;;;;;;;;5069848;28;20024;-77
2024/03/05 10:38:49;;;;;;;8.02;5.43;;;;;;;;;;5082380;28;20211;-78
2024/03/05 10:41:22;;;;;;;8.18;5.10;;;;;;;;;;5083032;28;20012;-77
2024/03/05 10:43:51;;;;;;;7.28;4.57;;;;;;;;;;5078712;28;20037;-77
2024/03/05 10:46:17;;;;;;;4.38;3.55;;;;;;;;;;5079640;28;20067;-78
2024/03/05 10:48:45;;;;;;;5.45;3.70;;;;;;;;;;5083466;28;20035;-77
2024/03/05 10:51:12;;;;;;;6.20;4.65;;;;;;;;;;5072267;28;20451;-78
2024/03/05 10:53:39;;;;;;;7.57;5.40;;;;;;;;;;5084820;28;20031;-78
2024/03/05 10:56:06;;;;;;;8.38;5.60;;;;;;;;;;5079642;28;20047;-77
2024/03/05 11:01:03;;;;;;;14.43;8.15;;;;;;;;;;5080903;28;20048;-77
2024/03/05 11:03:39;;;;;;;12.07;7.68;;;;;;;;;;5081468;28;20498;-77
2024/03/05 11:06:06;;;;;;;9.50;6.50;;;;;;;;;;5083702;28;20028;-78
2024/03/05 11:08:35;;;;;;;9.90;6.45;;;;;;;;;;5069500;28;20017;-77
2024/03/05 11:11:02;;;;;;;10.05;6.38;;;;;;;;;;5083951;28;20017;-78
2024/03/05 11:13:29;;;;;;;8.57;5.45;;;;;;;;;;5081212;28;20029;-77
2024/03/05 11:15:55;;;;;;;10.13;6.65;;;;;;;;;;5067650;28;20403;-79
2024/03/05 11:18:29;;;;;;;11.40;7.05;;;;;;;;;;5082657;28;20429;-77
2024/03/05 11:20:55;;;;;;;11.38;7.10;;;;;;;;;;5080648;28;20111;-78
2024/03/05 11:23:22;;;;;;;10.35;6.55;;;;;;;;;;5072751;28;20064;-77
2024/03/05 11:25:51;;;;;;;9.50;6.07;;;;;;;;;;5065413;28;20025;-78
2024/03/05 11:28:18;;;;;;;13.05;8.10;;;;;;;;;;5073628;28;20107;-78
2024/03/05 11:30:44;;;;;;;16.88;10.32;;;;;;;;;;5065549;28;20048;-78
2024/03/05 11:33:11;;;;;;;15.55;9.50;;;;;;;;;;5085150;28;20180;-77
2024/03/05 11:35:38;;;;;;;12.55;7.20;;;;;;;;;;5067573;28;20020;-77
2024/03/05 11:38:10;;;;;;;10.77;6.95;;;;;;;;;;5069862;28;20012;-78
2024/03/05 11:40:37;;;;;;;9.10;5.88;;;;;;;;;;5080712;28;20099;-77
2024/03/05 11:43:04;;;;;;;11.70;7.53;;;;;;;;;;5078772;28;20471;-77
2024/03/05 11:45:46;;;;;;;11.27;7.82;;;;;;;;;;5072626;28;20012;-77
2024/03/05 11:48:14;;;;;;;12.48;7.22;;;;;;;;;;5085521;28;20030;-78
2024/03/05 11:50:40;;;;;;;11.25;7.35;;;;;;;;;;5089877;28;20427;-77
2024/03/05 11:53:07;;;;;;;9.40;7.35;;;;;;;;;;5080421;28;20036;-77
2024/03/05 11:55:33;;;;;;;13.00;8.57;;;;;;;;;;5093240;28;20092;-78
2024/03/05 11:57:59;;;;;;;9.95;6.32;;;;;;;;;;5095287;28;20044;-78
2024/03/05 12:00:29;;;;;;;7.63;6.05;;;;;;;;;;5087046;28;20029;-78
2024/03/05 12:02:59;;;;;;;7.70;6.07;;;;;;;;;;5082326;28;20048;-78
2024/03/05 12:05:25;;;;;;;10.52;8.13;;;;;;;;;;5076336;28;20036;-78
2024/03/05 12:08:01;;;;;;;10.75;7.40;;;;;;;;;;5077536;28;20024;-77
2024/03/05 12:10:35;;;;;;;8.77;7.22;;;;;;;;;;5081081;28;20050;-77
2024/03/05 12:13:04;;;;;;;9.93;6.20;;;;;;;;;;5083027;28;20120;-77
2024/03/05 12:15:32;;;;;;;6.93;5.28;;;;;;;;;;5083054;28;20031;-77
2024/03/05 12:17:59;;;;;;;11.23;7.30;;;;;;;;;;5087326;28;20035;-77
2024/03/05 12:20:25;;;;;;;10.45;7.22;;;;;;;;;;5076941;28;20115;-79
2024/03/05 12:22:55;;;;;;;11.43;7.65;;;;;;;;;;5084153;28;20035;-79
2024/03/05 12:25:21;;;;;;;9.68;7.03;;;;;;;;;;5074396;28;20029;-78
2024/03/05 12:27:48;;;;;;;12.68;8.95;;;;;;;;;;5084290;28;20093;-78
2024/03/05 12:30:15;;;;;;;11.52;8.32;;;;;;;;;;5093629;28;20076;-78
2024/03/05 12:32:46;;;;;;;10.18;7.53;;;;;;;;;;5075091;28;20033;-78
2024/03/05 12:35:13;;;;;;;10.32;7.25;;;;;;;;;;5085732;28;20082;-77
2024/03/05 12:37:39;;;;;;;11.30;7.40;;;;;;;;;;5081498;28;20017;-77
2024/03/05 12:40:08;;;;;;;9.40;6.70;;;;;;;;;;5062774;28;20054;-78
2024/03/05 12:42:35;;;;;;;8.73;6.43;;;;;;;;;;5094853;28;20025;-78
2024/03/05 12:45:05;;;;;;;10.18;7.10;;;;;;;;;;5077883;28;20027;-77
2024/03/05 12:47:31;;;;;;;12.25;8.73;;;;;;;;;;5086434;28;20027;-78
2024/03/05 12:50:00;;;;;;;13.77;8.10;;;;;;;;;;5081306;28;20433;-78
2024/03/05 12:52:26;;;;;;;13.25;8.00;;;;;;;;;;5088001;28;20475;-78
2024/03/05 12:55:07;;;;;;;14.63;9.95;;;;;;;;;;5082710;28;20021;-77
2024/03/05 12:57:34;;;;;;;16.20;10.57;;;;;;;;;;5077488;28;20378;-77
2024/03/05 13:00:00;;;;;;;22.02;14.55;;;;;;;;;;5074189;28;20028;-78
2024/03/05 13:02:30;;;;;;;22.33;13.63;;;;;;;;;;5097256;28;20025;-78
2024/03/05 13:04:56;;;;;;;19.83;12.75;;;;;;;;;;5094594;28;20767;-78
2024/03/05 13:07:22;;;;;;;25.88;14.82;;;;;;;;;;5076015;28;20016;-78
2024/03/05 13:09:48;;;;;;;24.10;14.25;;;;;;;;;;5095938;28;20017;-78
2024/03/05 13:12:15;;;;;;;19.65;14.30;;;;;;;;;;5096538;28;20012;-78
2024/03/05 13:14:41;;;;;;;18.02;12.35;;;;;;;;;;5095078;28;20048;-78
2024/03/05 13:17:07;;;;;;;17.40;11.43;;;;;;;;;;5094382;28;20076;-79
2024/03/05 13:19:33;;;;;;;14.30;9.23;;;;;;;;;;5082498;28;20493;-78
2024/03/05 13:22:00;;;;;;;19.25;11.75;;;;;;;;;;5084762;28;20017;-78
2024/03/05 13:24:26;;;;;;;19.92;12.30;;;;;;;;;;5083679;28;20021;-77
2024/03/05 13:26:52;;;;;;;19.48;12.82;;;;;;;;;;5084282;28;20041;-78
2024/03/05 13:29:19;;;;;;;16.83;10.73;;;;;;;;;;5074930;28;20041;-78
2024/03/05 13:31:45;;;;;;;15.52;10.60;;;;;;;;;;5082118;28;20114;-79
2024/03/05 13:34:12;;;;;;;14.05;9.38;;;;;;;;;;5079217;28;20055;-78
2024/03/05 13:36:38;;;;;;;14.40;9.43;;;;;;;;;;5084326;28;20042;-77
2024/03/05 13:39:08;;;;;;;16.38;8.63;;;;;;;;;;5085851;28;20048;-77
2024/03/05 13:41:35;;;;;;;14.15;9.30;;;;;;;;;;5079524;28;20025;-77
2024/03/05 13:44:01;;;;;;;13.43;9.25;;;;;;;;;;5066244;28;20021;-77
2024/03/05 13:46:28;;;;;;;13.75;8.02;;;;;;;;;;5082226;28;20498;-77
2024/03/05 13:48:58;;;;;;;8.82;6.43;;;;;;;;;;5082655;28;20032;-77
2024/03/05 13:51:26;;;;;;;13.45;8.60;;;;;;;;;;5082202;28;20013;-77
2024/03/05 13:53:52;;;;;;;13.20;8.82;;;;;;;;;;5082626;28;20026;-77
2024/03/05 13:56:18;;;;;;;10.38;7.75;;;;;;;;;;5092839;28;20027;-78
2024/03/05 13:58:45;;;;;;;8.43;6.20;;;;;;;;;;5091808;28;20428;-78
2024/03/05 14:01:11;;;;;;;13.18;8.60;;;;;;;;;;5066849;28;20021;-77
2024/03/05 14:03:38;;;;;;;10.10;7.05;;;;;;;;;;5087961;28;20267;-79
2024/03/05 14:06:07;;;;;;;9.77;6.53;;;;;;;;;;5085657;28;20112;-77
2024/03/05 14:08:34;;;;;;;7.30;6.25;;;;;;;;;;5084620;28;20352;-77
2024/03/05 14:11:04;;;;;;;11.73;6.70;;;;;;;;;;5080240;28;20013;-78
2024/03/05 14:13:32;;;;;;;7.95;5.80;;;;;;;;;;5079581;28;20013;-77
2024/03/05 14:15:59;;;;;;;9.57;6.68;;;;;;;;;;5090162;28;20017;-78
2024/03/05 14:18:25;;;;;;;9.45;7.30;;;;;;;;;;5085041;28;20481;-79
2024/03/05 14:20:52;;;;;;;10.88;7.43;;;;;;;;;;5085559;28;20103;-78
2024/03/05 14:23:19;;;;;;;10.73;7.95;;;;;;;;;;5084452;28;20052;-78
2024/03/05 14:25:46;;;;;;;10.35;7.53;;;;;;;;;;5082252;28;20036;-77
2024/03/05 14:28:14;;;;;;;9.18;6.00;;;;;;;;;;5084442;28;20017;-78
2024/03/05 14:30:40;;;;;;;9.70;7.30;;;;;;;;;;5087195;28;20063;-79